Time;durP1;ratioP1;P1;durP2;ratioP2;P2;SDS_P1;SDS_P2;PMS_P1;PMS_P2;Temp;Humidity;BMP_temperature;BMP_pressure;BME280_temperature;BME280_humidity;BME280_pressure;Samples;Min_cycle;Max_cycle;Signal;HPM_P1;HPM_P2
2021/06/29 08:26:18;;;;;;;8.10;3.33;;;18.50;99.90;;;;;;15007795;22;1355050;-57
2021/06/29 08:32:05;;;;;;;9.20;3.65;;;20.80;99.90;;;;;;14772504;22;20020;-58
2021/06/29 08:37:52;;;;;;;5.95;3.08;;;21.10;99.90;;;;;;14768751;23;20063;-58
2021/06/29 08:43:41;;;;;;;3.45;2.30;;;21.50;99.90;;;;;;14772526;23;20052;-58
2021/06/29 08:49:28;;;;;;;4.53;2.25;;;21.90;99.90;;;;;;14788584;23;20020;-58
2021/06/29 08:55:15;;;;;;;5.90;2.03;;;22.20;99.90;;;;;;14801969;23;20103;-57
2021/06/29 09:01:04;;;;;;;6.65;1.80;;;22.30;99.90;;;;;;14799327;23;20378;-57
2021/06/29 09:06:50;;;;;;;2.83;1.15;;;22.40;99.90;;;;;;14801160;23;20479;-59
2021/06/29 09:12:43;;;;;;;2.95;1.40;;;22.40;99.90;;;;;;14803806;23;20071;-59
2021/06/29 09:18:35;;;;;;;1.30;1.20;;;22.40;99.90;;;;;;14800497;23;20060;-57
2021/06/29 09:24:33;;;;;;;2.88;1.27;;;22.50;99.90;;;;;;14787454;23;20111;-58
2021/06/29 09:30:32;;;;;;;1.80;1.50;;;22.50;99.90;;;;;;14764018;22;20374;-58
2021/06/29 09:36:22;;;;;;;6.50;1.70;;;22.50;99.90;;;;;;14783630;23;20541;-58
2021/06/29 09:42:09;;;;;;;1.40;1.00;;;22.70;99.90;;;;;;14781028;23;20052;-57
2021/06/29 09:47:56;;;;;;;2.45;0.95;;;22.80;99.90;;;;;;14781502;23;20043;-56
2021/06/29 09:53:44;;;;;;;1.88;0.93;;;22.80;99.90;;;;;;14713755;23;20611;-58
2021/06/29 09:59:31;;;;;;;1.80;1.02;;;22.60;99.90;;;;;;14763141;23;20151;-56
2021/06/29 10:05:24;;;;;;;4.18;0.90;;;22.50;99.90;;;;;;14764240;22;20066;-57
2021/06/29 10:11:19;;;;;;;3.45;1.10;;;22.30;99.90;;;;;;14780978;23;20031;-57
2021/06/29 10:17:21;;;;;;;2.60;1.20;;;22.30;99.90;;;;;;14780551;22;20025;-58
2021/06/29 10:23:35;;;;;;;1.10;0.85;;;22.40;99.90;;;;;;14624164;23;20047;-58
2021/06/29 10:36:28;;;;;;;2.53;1.00;;;22.50;99.90;;;;;;14388055;23;20030;-58
2021/06/29 10:42:21;;;;;;;6.60;0.90;;;22.30;99.90;;;;;;14660517;23;20028;-59
2021/06/29 10:48:19;;;;;;;2.38;0.88;;;22.60;99.90;;;;;;14749273;23;20389;-59
2021/06/29 10:54:51;;;;;;;2.78;0.60;;;22.60;99.50;;;;;;14753112;23;20032;-61
2021/06/29 11:00:38;;;;;;;3.05;0.65;;;22.80;99.90;;;;;;14710541;23;20469;-61
2021/06/29 11:06:48;;;;;;;1.45;0.70;;;23.50;99.90;;;;;;14753586;23;20024;-59
2021/06/29 11:12:40;;;;;;;1.42;0.73;;;23.90;97.60;;;;;;14754053;23;20028;-59
2021/06/29 11:18:51;;;;;;;2.55;0.60;;;23.50;94.30;;;;;;14750819;23;20032;-59
2021/06/29 11:24:43;;;;;;;1.35;0.90;;;23.10;96.10;;;;;;14752515;23;20078;-60
2021/06/29 11:31:06;;;;;;;1.30;0.60;;;23.40;98.40;;;;;;14752841;23;20494;-59
2021/06/29 11:36:55;;;;;;;1.38;0.65;;;23.60;96.10;;;;;;14752313;22;20031;-59
2021/06/29 11:43:06;;;;;;;1.55;0.80;;;23.50;95.40;;;;;;14755923;23;20508;-59
2021/06/29 11:49:08;;;;;;;0.80;0.60;;;23.60;94.80;;;;;;14753601;23;20024;-59
2021/06/29 11:54:59;;;;;;;2.08;0.73;;;23.60;95.30;;;;;;14752776;23;20031;-59
2021/06/29 12:00:46;;;;;;;2.25;0.70;;;23.40;93.40;;;;;;14756797;23;20336;-59
2021/06/29 12:06:33;;;;;;;2.90;0.60;;;23.30;94.50;;;;;;14753010;23;20352;-59
2021/06/29 12:12:24;;;;;;;2.38;0.63;;;23.40;93.10;;;;;;14753691;23;20035;-59
2021/06/29 12:18:14;;;;;;;5.03;1.00;;;23.40;91.40;;;;;;14755695;23;20371;-59
2021/06/29 12:24:01;;;;;;;0.60;0.60;;;23.80;90.80;;;;;;14725535;23;20029;-59
2021/06/29 12:29:50;;;;;;;0.82;0.70;;;24.00;90.10;;;;;;14757127;23;20081;-59
2021/06/29 12:35:37;;;;;;;3.05;0.75;;;24.30;90.20;;;;;;14752029;23;20032;-59
2021/06/29 12:41:25;;;;;;;0.90;0.70;;;24.30;85.70;;;;;;14754479;23;20039;-60
2021/06/29 12:47:14;;;;;;;2.58;0.70;;;24.50;89.80;;;;;;14751542;23;20024;-59
2021/06/29 12:53:01;;;;;;;1.95;1.05;;;24.50;88.90;;;;;;14751499;23;20036;-59
2021/06/29 12:58:50;;;;;;;0.50;0.50;;;24.50;87.20;;;;;;14753898;23;20024;-59
2021/06/29 13:04:44;;;;;;;0.80;0.40;;;24.30;82.40;;;;;;14756964;23;20102;-59
2021/06/29 13:10:31;;;;;;;0.77;0.60;;;24.20;82.90;;;;;;14758350;23;20075;-59
2021/06/29 13:16:20;;;;;;;3.00;0.82;;;24.20;84.90;;;;;;14755892;23;20031;-58
2021/06/29 13:22:10;;;;;;;2.75;0.90;;;24.30;87.60;;;;;;14738664;23;20046;-59
2021/06/29 13:28:05;;;;;;;3.70;0.68;;;24.30;86.30;;;;;;14757490;23;20024;-56
2021/06/29 13:33:52;;;;;;;0.73;0.60;;;24.20;86.80;;;;;;14755865;23;20020;-58
2021/06/29 13:39:40;;;;;;;1.55;0.65;;;24.00;82.00;;;;;;14760173;22;20024;-57
2021/06/29 13:45:33;;;;;;;0.82;0.77;;;23.90;82.20;;;;;;14756047;23;20111;-59
2021/06/29 13:51:23;;;;;;;0.98;0.60;;;23.80;84.70;;;;;;14756172;23;20266;-59
2021/06/29 13:57:22;;;;;;;2.13;0.90;;;23.80;84.70;;;;;;14756484;23;20390;-58
2021/06/29 14:03:10;;;;;;;3.22;0.57;;;23.70;88.00;;;;;;14756266;23;20032;-58
2021/06/29 14:09:08;;;;;;;2.15;0.68;;;23.80;87.30;;;;;;14756147;23;20030;-57
2021/06/29 14:15:06;;;;;;;0.93;0.80;;;24.00;84.70;;;;;;14754173;23;20024;-59
2021/06/29 14:20:53;;;;;;;1.95;0.70;;;24.20;83.20;;;;;;14753847;23;20050;-59
2021/06/29 14:26:40;;;;;;;1.38;0.70;;;24.30;86.10;;;;;;14751085;23;20032;-58
2021/06/29 14:32:28;;;;;;;3.55;0.70;;;24.20;82.20;;;;;;14754560;23;20087;-58
2021/06/29 14:38:16;;;;;;;1.35;0.93;;;23.80;83.50;;;;;;14757212;23;20022;-57
2021/06/29 14:44:03;;;;;;;0.73;0.70;;;23.60;87.10;;;;;;14754305;23;20095;-59
2021/06/29 14:49:51;;;;;;;1.23;0.70;;;23.40;86.70;;;;;;14754637;23;20024;-58
2021/06/29 14:55:41;;;;;;;2.13;0.95;;;23.30;88.50;;;;;;14754385;23;20023;-58
2021/06/29 15:01:28;;;;;;;3.20;0.70;;;23.40;89.20;;;;;;14755340;23;20028;-58
2021/06/29 15:07:16;;;;;;;1.55;0.70;;;23.50;86.00;;;;;;14755258;23;20143;-59
2021/06/29 15:13:06;;;;;;;0.63;0.60;;;23.50;85.30;;;;;;14753544;23;20031;-58
2021/06/29 15:18:53;;;;;;;1.75;0.70;;;23.50;85.20;;;;;;14726461;23;20035;-58
2021/06/29 15:24:41;;;;;;;2.22;0.88;;;23.60;86.30;;;;;;14755466;23;20033;-58
2021/06/29 15:30:30;;;;;;;1.30;0.80;;;23.60;87.10;;;;;;14755730;23;20024;-59
2021/06/29 15:36:17;;;;;;;1.95;1.10;;;23.70;87.30;;;;;;14754802;23;20052;-58
2021/06/29 15:42:05;;;;;;;1.92;0.95;;;23.90;88.70;;;;;;14754614;23;20362;-57
2021/06/29 15:47:54;;;;;;;3.25;1.00;;;24.00;89.50;;;;;;14769519;23;20076;-57
2021/06/29 15:53:41;;;;;;;5.75;1.55;;;24.20;88.50;;;;;;14780731;23;20028;-57
2021/06/29 15:59:30;;;;;;;3.28;1.00;;;24.00;87.60;;;;;;14779286;23;20177;-57
2021/06/29 16:05:19;;;;;;;1.77;1.10;;;23.90;88.40;;;;;;14747565;23;20048;-57
2021/06/29 16:11:06;;;;;;;1.05;0.82;;;23.60;88.80;;;;;;14759043;23;20475;-56
2021/06/29 16:16:55;;;;;;;1.95;1.00;;;23.40;90.20;;;;;;14781121;23;20048;-57
2021/06/29 16:22:42;;;;;;;3.55;1.20;;;23.20;89.20;;;;;;14779945;23;20025;-54
2021/06/29 16:28:29;;;;;;;2.97;1.25;;;23.00;90.50;;;;;;14778904;23;20048;-58
2021/06/29 16:34:19;;;;;;;2.63;1.17;;;23.00;91.40;;;;;;14756106;23;20396;-57
2021/06/29 16:40:07;;;;;;;3.83;1.10;;;23.10;91.40;;;;;;14756909;23;20023;-56
2021/06/29 16:45:54;;;;;;;4.18;1.13;;;23.00;90.90;;;;;;14756037;23;20025;-57
2021/06/29 16:51:42;;;;;;;3.20;1.63;;;22.70;90.40;;;;;;14760417;23;20098;-55
2021/06/29 16:57:30;;;;;;;3.88;1.23;;;22.40;92.10;;;;;;14758805;23;20024;-55
2021/06/29 17:03:17;;;;;;;3.80;1.67;;;22.20;93.40;;;;;;14760445;23;20033;-53
2021/06/29 17:09:07;;;;;;;3.97;1.83;;;21.70;95.60;;;;;;14782611;23;20041;-53
2021/06/29 17:14:55;;;;;;;5.60;2.10;;;21.30;99.40;;;;;;14784914;23;20103;-55
2021/06/29 17:20:42;;;;;;;9.27;2.75;;;20.80;99.90;;;;;;14784707;23;20083;-58
2021/06/29 17:26:30;;;;;;;6.43;2.83;;;20.60;99.90;;;;;;14784335;23;20055;-55
2021/06/29 17:32:17;;;;;;;8.75;2.80;;;20.40;99.90;;;;;;14772839;23;20107;-58
2021/06/29 17:38:05;;;;;;;6.63;2.63;;;20.40;99.90;;;;;;14760417;23;20031;-57
2021/06/29 17:43:53;;;;;;;6.32;2.50;;;20.40;99.90;;;;;;14714222;23;20470;-58
2021/06/29 17:49:40;;;;;;;3.50;2.20;;;20.40;99.90;;;;;;14759156;23;20028;-57
2021/06/29 17:55:27;;;;;;;4.55;2.33;;;20.40;99.90;;;;;;14759651;23;20097;-54
2021/06/29 18:01:16;;;;;;;2.55;2.13;;;20.40;99.90;;;;;;14758745;23;20099;-56
2021/06/29 18:07:04;;;;;;;3.70;2.65;;;20.40;99.90;;;;;;14760335;23;20077;-56
2021/06/29 18:12:50;;;;;;;3.85;2.10;;;20.50;99.90;;;;;;14759848;23;20020;-57
2021/06/29 18:18:39;;;;;;;5.55;2.50;;;20.50;99.90;;;;;;14757366;23;20467;-57
2021/06/29 18:24:26;;;;;;;3.20;2.20;;;20.40;99.90;;;;;;14755865;23;20042;-56
2021/06/29 18:30:14;;;;;;;3.78;2.53;;;20.40;99.90;;;;;;14756032;23;20362;-56
2021/06/29 18:36:03;;;;;;;4.97;2.70;;;20.40;99.90;;;;;;14736196;23;20532;-55
2021/06/29 18:41:50;;;;;;;4.20;2.50;;;20.50;99.90;;;;;;14756616;23;20107;-56
2021/06/29 18:47:36;;;;;;;8.73;2.92;;;20.60;99.90;;;;;;14754211;23;20024;-55
2021/06/29 18:53:25;;;;;;;3.65;2.33;;;20.60;99.90;;;;;;14753239;23;20035;-59
2021/06/29 18:59:12;;;;;;;8.95;2.90;;;20.50;99.90;;;;;;14756274;23;20021;-57
2021/06/29 19:05:00;;;;;;;4.93;2.80;;;20.40;99.90;;;;;;14754914;23;20050;-58
2021/06/29 19:10:48;;;;;;;8.48;3.33;;;20.30;99.90;;;;;;14754961;23;20033;-59
2021/06/29 19:16:36;;;;;;;7.45;3.20;;;20.10;99.90;;;;;;14756417;23;20056;-59
2021/06/29 19:22:22;;;;;;;4.60;3.30;;;20.00;99.90;;;;;;14753898;23;20479;-59
2021/06/29 19:28:25;;;;;;;7.50;4.18;;;20.00;99.90;;;;;;14754199;23;20028;-55
2021/06/29 19:34:13;;;;;;;7.57;4.03;;;20.00;99.90;;;;;;14752798;23;20599;-59
2021/06/29 19:40:00;;;;;;;4.78;3.75;;;20.10;99.90;;;;;;14753891;23;20482;-55
2021/06/29 19:45:49;;;;;;;10.88;3.83;;;20.20;99.90;;;;;;14755262;23;20375;-58
2021/06/29 19:51:36;;;;;;;4.28;3.78;;;20.10;99.90;;;;;;14749846;23;20024;-59
2021/06/29 19:57:23;;;;;;;9.00;4.55;;;20.20;99.90;;;;;;14756872;23;20175;-59
2021/06/29 20:03:11;;;;;;;7.88;4.00;;;20.20;99.90;;;;;;14711050;23;20024;-57
2021/06/29 20:08:59;;;;;;;5.10;4.32;;;20.20;99.90;;;;;;14750583;23;20370;-58
2021/06/29 20:14:46;;;;;;;7.72;4.07;;;20.10;99.90;;;;;;14753237;23;20496;-59
2021/06/29 20:20:34;;;;;;;5.63;4.07;;;20.10;99.90;;;;;;14777169;23;20470;-58
2021/06/29 20:26:21;;;;;;;6.97;4.20;;;20.20;99.90;;;;;;14781073;23;20044;-54
2021/06/29 20:32:08;;;;;;;5.80;3.92;;;20.10;99.90;;;;;;14766964;23;20427;-58
2021/06/29 20:38:05;;;;;;;8.23;4.32;;;20.20;99.90;;;;;;14780543;23;20095;-57
2021/06/29 20:43:52;;;;;;;5.75;4.85;;;20.20;99.90;;;;;;14780335;23;20036;-56
2021/06/29 20:49:39;;;;;;;8.30;4.90;;;20.20;99.90;;;;;;14781336;23;20080;-58
2021/06/29 20:55:28;;;;;;;10.45;5.75;;;20.20;99.90;;;;;;14780460;23;20103;-62
2021/06/29 21:01:14;;;;;;;10.20;5.53;;;20.30;99.90;;;;;;14780921;23;20041;-54
2021/06/29 21:07:02;;;;;;;9.45;6.13;;;20.20;99.90;;;;;;14780167;23;20568;-54
2021/06/29 21:12:51;;;;;;;11.48;6.90;;;20.20;99.90;;;;;;14781187;23;20052;-56
2021/06/29 21:18:38;;;;;;;7.68;6.40;;;20.30;99.90;;;;;;14783570;23;20024;-65
2021/06/29 21:24:25;;;;;;;16.17;6.82;;;20.30;99.90;;;;;;14784124;23;20024;-56
2021/06/29 21:30:15;;;;;;;10.40;6.60;;;20.30;99.90;;;;;;14779688;23;20021;-57
2021/06/29 21:36:02;;;;;;;12.20;7.32;;;20.40;99.90;;;;;;14758080;23;20483;-56
2021/06/29 21:41:49;;;;;;;10.77;6.97;;;20.40;99.90;;;;;;14738935;23;20108;-56
2021/06/29 21:47:37;;;;;;;11.40;6.85;;;20.30;99.90;;;;;;14739974;23;20035;-53
2021/06/29 21:53:24;;;;;;;10.35;7.45;;;20.20;99.90;;;;;;14756933;23;20051;-54
2021/06/29 21:59:12;;;;;;;17.25;6.50;;;20.10;99.90;;;;;;14783319;23;20103;-52
2021/06/29 22:05:01;;;;;;;13.57;7.40;;;20.10;99.90;;;;;;14782849;23;20613;-56
2021/06/29 22:10:48;;;;;;;17.45;6.35;;;20.10;99.90;;;;;;14756004;23;20060;-57
2021/06/29 22:16:35;;;;;;;12.13;5.72;;;20.00;99.90;;;;;;14783695;23;20025;-55
2021/06/29 22:22:24;;;;;;;10.63;5.78;;;20.00;99.90;;;;;;14783300;23;20024;-55
